sensor_id;sensor_type;location;lat;lon;timestamp;temperature;humidity
67054;SHT31;53960;51.826;5.850;2022-10-16T00:00:33;12.20;94.91
67054;SHT31;53960;51.826;5.850;2022-10-16T00:02:59;12.19;94.98
67054;SHT31;53960;51.826;5.850;2022-10-16T00:05:24;12.13;95.12
67054;SHT31;53960;51.826;5.850;2022-10-16T00:07:49;12.09;95.24
67054;SHT31;53960;51.826;5.850;2022-10-16T00:10:15;12.09;95.29
67054;SHT31;53960;51.826;5.850;2022-10-16T00:12:40;12.09;95.37
67054;SHT31;53960;51.826;5.850;2022-10-16T00:15:06;12.10;95.58
67054;SHT31;53960;51.826;5.850;2022-10-16T00:17:31;12.13;95.47
67054;SHT31;53960;51.826;5.850;2022-10-16T00:19:57;12.16;95.27
67054;SHT31;53960;51.826;5.850;2022-10-16T00:22:22;12.14;95.49
67054;SHT31;53960;51.826;5.850;2022-10-16T00:24:48;12.13;95.68
67054;SHT31;53960;51.826;5.850;2022-10-16T00:27:13;12.13;95.76
67054;SHT31;53960;51.826;5.850;2022-10-16T00:29:38;12.12;95.80
67054;SHT31;53960;51.826;5.850;2022-10-16T00:32:04;12.09;95.80
67054;SHT31;53960;51.826;5.850;2022-10-16T00:34:29;12.10;95.91
67054;SHT31;53960;51.826;5.850;2022-10-16T00:36:54;12.10;96.15
67054;SHT31;53960;51.826;5.850;2022-10-16T00:39:20;12.09;96.09
67054;SHT31;53960;51.826;5.850;2022-10-16T00:41:45;12.07;96.18
67054;SHT31;53960;51.826;5.850;2022-10-16T00:44:49;11.99;96.32
67054;SHT31;53960;51.826;5.850;2022-10-16T00:50:00;12.03;96.63
67054;SHT31;53960;51.826;5.850;2022-10-16T00:52:27;12.06;96.50
67054;SHT31;53960;51.826;5.850;2022-10-16T00:54:53;12.09;96.25
67054;SHT31;53960;51.826;5.850;2022-10-16T00:57:19;12.02;96.51
67054;SHT31;53960;51.826;5.850;2022-10-16T00:59:45;11.99;96.76
67054;SHT31;53960;51.826;5.850;2022-10-16T01:02:14;11.99;96.70
67054;SHT31;53960;51.826;5.850;2022-10-16T01:04:50;11.96;96.84
67054;SHT31;53960;51.826;5.850;2022-10-16T01:10:17;11.92;97.07
67054;SHT31;53960;51.826;5.850;2022-10-16T01:13:01;11.97;97.07
67054;SHT31;53960;51.826;5.850;2022-10-16T01:15:42;11.94;96.92
67054;SHT31;53960;51.826;5.850;2022-10-16T01:20:58;11.89;97.25
67054;SHT31;53960;51.826;5.850;2022-10-16T01:23:36;11.89;97.27
67054;SHT31;53960;51.826;5.850;2022-10-16T01:26:20;11.90;97.13
67054;SHT31;53960;51.826;5.850;2022-10-16T01:31:41;11.86;97.38
67054;SHT31;53960;51.826;5.850;2022-10-16T01:34:25;11.97;97.20
67054;SHT31;53960;51.826;5.850;2022-10-16T01:36:57;12.00;97.03
67054;SHT31;53960;51.826;5.850;2022-10-16T01:39:30;12.03;96.90
67054;SHT31;53960;51.826;5.850;2022-10-16T01:42:03;12.03;96.80
67054;SHT31;53960;51.826;5.850;2022-10-16T01:44:32;12.07;96.79
67054;SHT31;53960;51.826;5.850;2022-10-16T01:46:59;12.06;96.79
67054;SHT31;53960;51.826;5.850;2022-10-16T01:49:27;12.06;96.76
67054;SHT31;53960;51.826;5.850;2022-10-16T01:51:56;12.06;96.80
67054;SHT31;53960;51.826;5.850;2022-10-16T01:54:27;12.07;96.79
67054;SHT31;53960;51.826;5.850;2022-10-16T01:56:54;12.10;96.64
67054;SHT31;53960;51.826;5.850;2022-10-16T01:59:23;12.12;96.62
67054;SHT31;53960;51.826;5.850;2022-10-16T02:01:52;12.16;96.43
67054;SHT31;53960;51.826;5.850;2022-10-16T02:04:36;12.17;96.42
67054;SHT31;53960;51.826;5.850;2022-10-16T02:07:02;12.16;96.55
67054;SHT31;53960;51.826;5.850;2022-10-16T02:09:29;12.26;96.16
67054;SHT31;53960;51.826;5.850;2022-10-16T02:11:57;12.26;96.35
67054;SHT31;53960;51.826;5.850;2022-10-16T02:14:24;12.31;96.37
67054;SHT31;53960;51.826;5.850;2022-10-16T02:16:50;12.36;96.25
67054;SHT31;53960;51.826;5.850;2022-10-16T02:19:17;12.45;96.10
67054;SHT31;53960;51.826;5.850;2022-10-16T02:22:00;12.47;95.89
67054;SHT31;53960;51.826;5.850;2022-10-16T02:24:38;12.54;95.53
67054;SHT31;53960;51.826;5.850;2022-10-16T02:27:11;12.54;95.48
67054;SHT31;53960;51.826;5.850;2022-10-16T02:29:42;12.54;95.56
67054;SHT31;53960;51.826;5.850;2022-10-16T02:32:12;12.55;95.49
67054;SHT31;53960;51.826;5.850;2022-10-16T02:34:39;12.55;95.48
67054;SHT31;53960;51.826;5.850;2022-10-16T02:37:05;12.57;95.38
67054;SHT31;53960;51.826;5.850;2022-10-16T02:39:32;12.55;95.39
67054;SHT31;53960;51.826;5.850;2022-10-16T02:41:58;12.57;95.32
67054;SHT31;53960;51.826;5.850;2022-10-16T02:44:23;12.54;95.52
67054;SHT31;53960;51.826;5.850;2022-10-16T02:46:48;12.61;95.22
67054;SHT31;53960;51.826;5.850;2022-10-16T02:49:14;12.64;95.06
67054;SHT31;53960;51.826;5.850;2022-10-16T02:51:39;12.60;95.20
67054;SHT31;53960;51.826;5.850;2022-10-16T02:54:04;12.55;95.10
67054;SHT31;53960;51.826;5.850;2022-10-16T02:56:30;12.57;95.03
67054;SHT31;53960;51.826;5.850;2022-10-16T02:58:56;12.52;95.07
67054;SHT31;53960;51.826;5.850;2022-10-16T03:01:21;12.52;95.19
67054;SHT31;53960;51.826;5.850;2022-10-16T03:03:47;12.52;95.03
67054;SHT31;53960;51.826;5.850;2022-10-16T03:06:12;12.50;95.14
67054;SHT31;53960;51.826;5.850;2022-10-16T03:08:37;12.50;95.06
67054;SHT31;53960;51.826;5.850;2022-10-16T03:11:03;12.51;94.92
67054;SHT31;53960;51.826;5.850;2022-10-16T03:13:28;12.51;94.83
67054;SHT31;53960;51.826;5.850;2022-10-16T03:15:53;12.45;94.98
67054;SHT31;53960;51.826;5.850;2022-10-16T03:18:19;12.51;94.84
67054;SHT31;53960;51.826;5.850;2022-10-16T03:20:44;12.50;94.79
67054;SHT31;53960;51.826;5.850;2022-10-16T03:23:10;12.44;94.95
67054;SHT31;53960;51.826;5.850;2022-10-16T03:25:35;12.45;95.13
67054;SHT31;53960;51.826;5.850;2022-10-16T03:28:00;12.42;95.08
67054;SHT31;53960;51.826;5.850;2022-10-16T03:30:26;12.47;94.98
67054;SHT31;53960;51.826;5.850;2022-10-16T03:32:52;12.44;95.05
67054;SHT31;53960;51.826;5.850;2022-10-16T03:35:20;12.42;95.04
67054;SHT31;53960;51.826;5.850;2022-10-16T03:37:45;12.36;95.30
67054;SHT31;53960;51.826;5.850;2022-10-16T03:40:10;12.29;95.54
67054;SHT31;53960;51.826;5.850;2022-10-16T03:42:36;12.31;95.54
67054;SHT31;53960;51.826;5.850;2022-10-16T03:45:01;12.33;95.69
67054;SHT31;53960;51.826;5.850;2022-10-16T03:47:27;12.47;95.27
67054;SHT31;53960;51.826;5.850;2022-10-16T03:49:52;12.48;95.14
67054;SHT31;53960;51.826;5.850;2022-10-16T03:52:17;12.47;95.15
67054;SHT31;53960;51.826;5.850;2022-10-16T03:54:43;12.45;95.08
67054;SHT31;53960;51.826;5.850;2022-10-16T03:57:08;12.44;95.15
67054;SHT31;53960;51.826;5.850;2022-10-16T03:59:34;12.48;94.99
67054;SHT31;53960;51.826;5.850;2022-10-16T04:01:59;12.51;94.98
67054;SHT31;53960;51.826;5.850;2022-10-16T04:04:24;12.48;94.94
67054;SHT31;53960;51.826;5.850;2022-10-16T04:06:50;12.47;94.94
67054;SHT31;53960;51.826;5.850;2022-10-16T04:09:15;12.45;95.14
67054;SHT31;53960;51.826;5.850;2022-10-16T04:11:41;12.50;95.00
67054;SHT31;53960;51.826;5.850;2022-10-16T04:14:06;12.41;95.13
67054;SHT31;53960;51.826;5.850;2022-10-16T04:16:31;12.40;95.10
67054;SHT31;53960;51.826;5.850;2022-10-16T04:18:57;12.41;95.21
67054;SHT31;53960;51.826;5.850;2022-10-16T04:21:22;12.40;95.19
67054;SHT31;53960;51.826;5.850;2022-10-16T04:23:47;12.37;95.29
67054;SHT31;53960;51.826;5.850;2022-10-16T04:26:13;12.37;95.31
67054;SHT31;53960;51.826;5.850;2022-10-16T04:28:38;12.33;95.54
67054;SHT31;53960;51.826;5.850;2022-10-16T04:31:04;12.33;95.40
67054;SHT31;53960;51.826;5.850;2022-10-16T04:33:30;12.33;95.41
67054;SHT31;53960;51.826;5.850;2022-10-16T04:36:03;12.30;95.43
67054;SHT31;53960;51.826;5.850;2022-10-16T04:38:29;12.29;95.61
67054;SHT31;53960;51.826;5.850;2022-10-16T04:40:55;12.26;95.67
67054;SHT31;53960;51.826;5.850;2022-10-16T04:43:20;12.24;95.61
67054;SHT31;53960;51.826;5.850;2022-10-16T04:45:46;12.26;95.54
67054;SHT31;53960;51.826;5.850;2022-10-16T04:48:11;12.27;95.61
67054;SHT31;53960;51.826;5.850;2022-10-16T04:50:37;12.24;95.53
67054;SHT31;53960;51.826;5.850;2022-10-16T04:53:02;12.20;95.62
67054;SHT31;53960;51.826;5.850;2022-10-16T04:55:28;12.20;95.70
67054;SHT31;53960;51.826;5.850;2022-10-16T04:57:53;12.17;95.72
67054;SHT31;53960;51.826;5.850;2022-10-16T05:00:19;12.14;95.83
67054;SHT31;53960;51.826;5.850;2022-10-16T05:02:44;12.12;95.92
67054;SHT31;53960;51.826;5.850;2022-10-16T05:05:09;12.06;96.02
67054;SHT31;53960;51.826;5.850;2022-10-16T05:07:35;12.03;96.20
67054;SHT31;53960;51.826;5.850;2022-10-16T05:10:00;11.94;96.44
67054;SHT31;53960;51.826;5.850;2022-10-16T05:12:25;11.94;96.44
67054;SHT31;53960;51.826;5.850;2022-10-16T05:14:51;11.94;96.53
67054;SHT31;53960;51.826;5.850;2022-10-16T05:17:16;11.90;96.52
67054;SHT31;53960;51.826;5.850;2022-10-16T05:19:41;11.87;96.53
67054;SHT31;53960;51.826;5.850;2022-10-16T05:22:07;11.85;96.71
67054;SHT31;53960;51.826;5.850;2022-10-16T05:24:32;11.85;96.67
67054;SHT31;53960;51.826;5.850;2022-10-16T05:26:57;11.85;96.83
67054;SHT31;53960;51.826;5.850;2022-10-16T05:29:22;11.82;96.75
67054;SHT31;53960;51.826;5.850;2022-10-16T05:31:54;11.73;96.89
67054;SHT31;53960;51.826;5.850;2022-10-16T05:34:20;11.79;96.89
67054;SHT31;53960;51.826;5.850;2022-10-16T05:36:45;11.73;97.02
67054;SHT31;53960;51.826;5.850;2022-10-16T05:39:11;11.69;96.94
67054;SHT31;53960;51.826;5.850;2022-10-16T05:41:37;11.73;97.04
67054;SHT31;53960;51.826;5.850;2022-10-16T05:44:05;11.69;96.91
67054;SHT31;53960;51.826;5.850;2022-10-16T05:46:31;11.68;97.12
67054;SHT31;53960;51.826;5.850;2022-10-16T05:48:57;11.65;97.27
67054;SHT31;53960;51.826;5.850;2022-10-16T05:51:22;11.59;97.34
67054;SHT31;53960;51.826;5.850;2022-10-16T05:53:48;11.61;97.46
67054;SHT31;53960;51.826;5.850;2022-10-16T05:56:13;11.58;97.51
67054;SHT31;53960;51.826;5.850;2022-10-16T05:58:39;11.57;97.48
67054;SHT31;53960;51.826;5.850;2022-10-16T06:01:11;11.58;97.70
67054;SHT31;53960;51.826;5.850;2022-10-16T06:03:37;11.58;97.65
67054;SHT31;53960;51.826;5.850;2022-10-16T06:06:17;11.62;97.74
67054;SHT31;53960;51.826;5.850;2022-10-16T06:08:44;11.58;97.61
67054;SHT31;53960;51.826;5.850;2022-10-16T06:11:13;11.58;97.63
67054;SHT31;53960;51.826;5.850;2022-10-16T06:13:38;11.58;97.63
67054;SHT31;53960;51.826;5.850;2022-10-16T06:16:07;11.54;97.60
67054;SHT31;53960;51.826;5.850;2022-10-16T06:18:32;11.57;97.82
67054;SHT31;53960;51.826;5.850;2022-10-16T06:20:57;11.59;97.87
67054;SHT31;53960;51.826;5.850;2022-10-16T06:23:24;11.63;97.90
67054;SHT31;53960;51.826;5.850;2022-10-16T06:25:49;11.63;97.82
67054;SHT31;53960;51.826;5.850;2022-10-16T06:28:15;11.68;97.88
67054;SHT31;53960;51.826;5.850;2022-10-16T06:30:40;11.75;97.83
67054;SHT31;53960;51.826;5.850;2022-10-16T06:33:06;11.76;97.66
67054;SHT31;53960;51.826;5.850;2022-10-16T06:35:31;11.76;97.57
67054;SHT31;53960;51.826;5.850;2022-10-16T06:37:57;11.83;97.62
67054;SHT31;53960;51.826;5.850;2022-10-16T06:40:22;11.82;97.42
67054;SHT31;53960;51.826;5.850;2022-10-16T06:42:48;11.85;97.40
67054;SHT31;53960;51.826;5.850;2022-10-16T06:45:13;11.86;97.47
67054;SHT31;53960;51.826;5.850;2022-10-16T06:47:38;11.93;97.44
67054;SHT31;53960;51.826;5.850;2022-10-16T06:50:04;11.99;97.50
67054;SHT31;53960;51.826;5.850;2022-10-16T06:52:32;12.07;97.39
67054;SHT31;53960;51.826;5.850;2022-10-16T06:54:57;12.16;97.29
67054;SHT31;53960;51.826;5.850;2022-10-16T06:57:23;12.23;97.18
67054;SHT31;53960;51.826;5.850;2022-10-16T06:59:48;12.30;97.04
67054;SHT31;53960;51.826;5.850;2022-10-16T07:02:13;12.40;96.77
67054;SHT31;53960;51.826;5.850;2022-10-16T07:04:39;12.47;96.65
67054;SHT31;53960;51.826;5.850;2022-10-16T07:07:04;12.58;96.45
67054;SHT31;53960;51.826;5.850;2022-10-16T07:09:29;12.67;96.24
67054;SHT31;53960;51.826;5.850;2022-10-16T07:11:54;12.77;96.07
67054;SHT31;53960;51.826;5.850;2022-10-16T07:14:21;12.82;95.31
67054;SHT31;53960;51.826;5.850;2022-10-16T07:16:48;12.96;95.38
67054;SHT31;53960;51.826;5.850;2022-10-16T07:19:14;13.02;95.06
67054;SHT31;53960;51.826;5.850;2022-10-16T07:21:41;13.06;94.90
67054;SHT31;53960;51.826;5.850;2022-10-16T07:24:11;13.09;94.84
67054;SHT31;53960;51.826;5.850;2022-10-16T07:26:37;13.16;94.68
67054;SHT31;53960;51.826;5.850;2022-10-16T07:29:07;13.23;94.33
67054;SHT31;53960;51.826;5.850;2022-10-16T07:31:36;13.23;94.40
67054;SHT31;53960;51.826;5.850;2022-10-16T07:34:01;13.20;94.34
67054;SHT31;53960;51.826;5.850;2022-10-16T07:36:26;13.23;94.43
67054;SHT31;53960;51.826;5.850;2022-10-16T07:38:52;13.23;94.21
67054;SHT31;53960;51.826;5.850;2022-10-16T07:41:19;13.26;94.05
67054;SHT31;53960;51.826;5.850;2022-10-16T07:43:46;13.26;94.00
67054;SHT31;53960;51.826;5.850;2022-10-16T07:46:11;13.23;93.84
67054;SHT31;53960;51.826;5.850;2022-10-16T07:48:37;13.24;93.83
67054;SHT31;53960;51.826;5.850;2022-10-16T07:51:04;13.29;93.72
67054;SHT31;53960;51.826;5.850;2022-10-16T07:53:30;13.30;93.71
67054;SHT31;53960;51.826;5.850;2022-10-16T07:56:03;13.32;93.77
67054;SHT31;53960;51.826;5.850;2022-10-16T07:58:28;13.39;93.41
67054;SHT31;53960;51.826;5.850;2022-10-16T08:00:55;13.39;93.65
67054;SHT31;53960;51.826;5.850;2022-10-16T08:03:20;13.42;93.55
67054;SHT31;53960;51.826;5.850;2022-10-16T08:05:45;13.49;93.27
67054;SHT31;53960;51.826;5.850;2022-10-16T08:08:13;13.53;93.01
67054;SHT31;53960;51.826;5.850;2022-10-16T08:10:40;13.60;92.89
67054;SHT31;53960;51.826;5.850;2022-10-16T08:13:05;13.63;92.90
67054;SHT31;53960;51.826;5.850;2022-10-16T08:15:31;13.63;93.10
67054;SHT31;53960;51.826;5.850;2022-10-16T08:17:58;13.61;93.13
67054;SHT31;53960;51.826;5.850;2022-10-16T08:20:24;13.70;92.67
67054;SHT31;53960;51.826;5.850;2022-10-16T08:22:49;13.77;92.39
67054;SHT31;53960;51.826;5.850;2022-10-16T08:25:14;13.82;91.85
67054;SHT31;53960;51.826;5.850;2022-10-16T08:27:40;13.90;91.43
67054;SHT31;53960;51.826;5.850;2022-10-16T08:30:06;14.04;90.98
67054;SHT31;53960;51.826;5.850;2022-10-16T08:32:31;14.08;90.67
67054;SHT31;53960;51.826;5.850;2022-10-16T08:34:57;14.08;91.06
67054;SHT31;53960;51.826;5.850;2022-10-16T08:37:22;14.11;90.80
67054;SHT31;53960;51.826;5.850;2022-10-16T08:39:48;14.18;90.40
67054;SHT31;53960;51.826;5.850;2022-10-16T08:42:25;14.26;90.07
67054;SHT31;53960;51.826;5.850;2022-10-16T08:45:19;14.30;89.81
67054;SHT31;53960;51.826;5.850;2022-10-16T08:48:04;14.40;89.64
67054;SHT31;53960;51.826;5.850;2022-10-16T08:50:32;14.46;89.53
67054;SHT31;53960;51.826;5.850;2022-10-16T08:53:03;14.46;88.96
67054;SHT31;53960;51.826;5.850;2022-10-16T08:58:15;14.52;88.77
67054;SHT31;53960;51.826;5.850;2022-10-16T09:00:43;14.56;87.88
67054;SHT31;53960;51.826;5.850;2022-10-16T09:03:18;14.60;88.35
67054;SHT31;53960;51.826;5.850;2022-10-16T09:05:49;14.59;87.97
67054;SHT31;53960;51.826;5.850;2022-10-16T09:08:46;14.67;87.44
67054;SHT31;53960;51.826;5.850;2022-10-16T09:14:30;14.83;86.88
67054;SHT31;53960;51.826;5.850;2022-10-16T09:17:36;14.90;86.02
67054;SHT31;53960;51.826;5.850;2022-10-16T09:20:30;14.86;86.44
67054;SHT31;53960;51.826;5.850;2022-10-16T09:23:12;14.90;86.74
67054;SHT31;53960;51.826;5.850;2022-10-16T09:25:39;14.96;86.39
67054;SHT31;53960;51.826;5.850;2022-10-16T09:28:08;15.03;86.42
67054;SHT31;53960;51.826;5.850;2022-10-16T09:30:35;15.07;86.57
67054;SHT31;53960;51.826;5.850;2022-10-16T09:33:00;15.10;86.70
67054;SHT31;53960;51.826;5.850;2022-10-16T09:35:53;15.08;86.25
67054;SHT31;53960;51.826;5.850;2022-10-16T09:38:24;15.11;86.46
67054;SHT31;53960;51.826;5.850;2022-10-16T09:40:49;15.12;86.63
67054;SHT31;53960;51.826;5.850;2022-10-16T09:43:22;15.24;86.22
67054;SHT31;53960;51.826;5.850;2022-10-16T09:46:00;15.31;85.40
67054;SHT31;53960;51.826;5.850;2022-10-16T09:48:35;15.39;85.25
67054;SHT31;53960;51.826;5.850;2022-10-16T09:51:03;15.42;85.45
67054;SHT31;53960;51.826;5.850;2022-10-16T09:53:41;15.48;85.35
67054;SHT31;53960;51.826;5.850;2022-10-16T09:56:20;15.48;84.37
67054;SHT31;53960;51.826;5.850;2022-10-16T09:58:51;15.48;85.22
67054;SHT31;53960;51.826;5.850;2022-10-16T10:01:16;15.52;85.65
67054;SHT31;53960;51.826;5.850;2022-10-16T10:03:43;15.56;85.25
67054;SHT31;53960;51.826;5.850;2022-10-16T10:06:22;15.62;85.01
67054;SHT31;53960;51.826;5.850;2022-10-16T10:09:21;15.75;83.83
67054;SHT31;53960;51.826;5.850;2022-10-16T10:11:58;15.78;83.72
67054;SHT31;53960;51.826;5.850;2022-10-16T10:14:32;15.78;83.22
67054;SHT31;53960;51.826;5.850;2022-10-16T10:17:10;15.79;82.91
67054;SHT31;53960;51.826;5.850;2022-10-16T10:19:40;15.76;82.79
67054;SHT31;53960;51.826;5.850;2022-10-16T10:22:38;15.78;82.41
67054;SHT31;53960;51.826;5.850;2022-10-16T10:27:46;15.93;82.15
67054;SHT31;53960;51.826;5.850;2022-10-16T10:38:19;16.20;82.00
67054;SHT31;53960;51.826;5.850;2022-10-16T10:43:44;16.40;79.41
67054;SHT31;53960;51.826;5.850;2022-10-16T10:46:31;16.33;77.38
67054;SHT31;53960;51.826;5.850;2022-10-16T10:57:57;16.36;77.11
67054;SHT31;53960;51.826;5.850;2022-10-16T11:00:45;16.36;76.55
67054;SHT31;53960;51.826;5.850;2022-10-16T11:06:26;16.55;77.84
67054;SHT31;53960;51.826;5.850;2022-10-16T11:11:40;16.75;75.61
67054;SHT31;53960;51.826;5.850;2022-10-16T11:16:49;16.76;74.59
67054;SHT31;53960;51.826;5.850;2022-10-16T11:24:46;16.79;73.29
67054;SHT31;53960;51.826;5.850;2022-10-16T11:27:21;16.75;74.29
67054;SHT31;53960;51.826;5.850;2022-10-16T11:30:00;16.75;74.69
67054;SHT31;53960;51.826;5.850;2022-10-16T11:32:34;16.74;74.23
67054;SHT31;53960;51.826;5.850;2022-10-16T11:35:38;16.84;74.31
67054;SHT31;53960;51.826;5.850;2022-10-16T11:38:10;16.91;74.65
67054;SHT31;53960;51.826;5.850;2022-10-16T11:40:38;16.92;73.29
67054;SHT31;53960;51.826;5.850;2022-10-16T11:43:14;16.94;74.22
67054;SHT31;53960;51.826;5.850;2022-10-16T11:45:44;17.01;73.50
67054;SHT31;53960;51.826;5.850;2022-10-16T11:48:27;17.06;73.81
67054;SHT31;53960;51.826;5.850;2022-10-16T11:51:16;17.11;72.95
67054;SHT31;53960;51.826;5.850;2022-10-16T11:56:15;17.19;73.11
67054;SHT31;53960;51.826;5.850;2022-10-16T11:58:51;17.27;73.48
67054;SHT31;53960;51.826;5.850;2022-10-16T12:01:42;17.26;73.32
67054;SHT31;53960;51.826;5.850;2022-10-16T12:04:30;17.22;71.27
67054;SHT31;53960;51.826;5.850;2022-10-16T12:09:32;17.22;71.93
67054;SHT31;53960;51.826;5.850;2022-10-16T12:11:59;17.29;72.81
67054;SHT31;53960;51.826;5.850;2022-10-16T12:14:38;17.32;72.90
67054;SHT31;53960;51.826;5.850;2022-10-16T12:17:37;17.37;72.77
67054;SHT31;53960;51.826;5.850;2022-10-16T12:22:46;17.39;72.59
67054;SHT31;53960;51.826;5.850;2022-10-16T12:25:21;17.46;72.48
67054;SHT31;53960;51.826;5.850;2022-10-16T12:27:54;17.50;71.34
67054;SHT31;53960;51.826;5.850;2022-10-16T12:30:23;17.62;70.46
67054;SHT31;53960;51.826;5.850;2022-10-16T12:32:54;17.63;70.97
67054;SHT31;53960;51.826;5.850;2022-10-16T12:35:26;17.69;71.54
67054;SHT31;53960;51.826;5.850;2022-10-16T12:37:52;17.73;69.71
67054;SHT31;53960;51.826;5.850;2022-10-16T12:40:30;17.84;70.91
67054;SHT31;53960;51.826;5.850;2022-10-16T12:42:56;17.97;70.45
67054;SHT31;53960;51.826;5.850;2022-10-16T12:45:32;18.02;70.22
67054;SHT31;53960;51.826;5.850;2022-10-16T12:48:00;18.15;71.42
67054;SHT31;53960;51.826;5.850;2022-10-16T12:50:38;18.22;70.10
67054;SHT31;53960;51.826;5.850;2022-10-16T12:53:18;18.02;69.59
67054;SHT31;53960;51.826;5.850;2022-10-16T12:55:55;17.97;69.21
67054;SHT31;53960;51.826;5.850;2022-10-16T13:01:32;17.83;69.41
67054;SHT31;53960;51.826;5.850;2022-10-16T13:04:27;17.83;69.73
67054;SHT31;53960;51.826;5.850;2022-10-16T13:10:05;17.67;69.86
67054;SHT31;53960;51.826;5.850;2022-10-16T13:12:54;17.53;70.44
67054;SHT31;53960;51.826;5.850;2022-10-16T13:15:41;17.40;71.27
67054;SHT31;53960;51.826;5.850;2022-10-16T13:18:16;17.30;71.49
67054;SHT31;53960;51.826;5.850;2022-10-16T13:26:30;17.11;72.85
67054;SHT31;53960;51.826;5.850;2022-10-16T13:29:00;17.05;73.23
67054;SHT31;53960;51.826;5.850;2022-10-16T13:31:26;17.09;73.56
67054;SHT31;53960;51.826;5.850;2022-10-16T13:33:53;17.19;72.78
67054;SHT31;53960;51.826;5.850;2022-10-16T13:36:21;17.25;72.26
67054;SHT31;53960;51.826;5.850;2022-10-16T13:38:46;17.27;72.54
67054;SHT31;53960;51.826;5.850;2022-10-16T13:41:15;17.40;71.76
67054;SHT31;53960;51.826;5.850;2022-10-16T13:43:44;17.51;71.86
67054;SHT31;53960;51.826;5.850;2022-10-16T13:46:24;17.59;72.30
67054;SHT31;53960;51.826;5.850;2022-10-16T13:48:59;17.59;70.21
67054;SHT31;53960;51.826;5.850;2022-10-16T13:51:26;17.60;70.55
67054;SHT31;53960;51.826;5.850;2022-10-16T13:53:51;17.62;69.81
67054;SHT31;53960;51.826;5.850;2022-10-16T13:56:20;17.62;71.13
67054;SHT31;53960;51.826;5.850;2022-10-16T13:59:01;17.71;70.24
67054;SHT31;53960;51.826;5.850;2022-10-16T14:01:49;17.71;71.75
67054;SHT31;53960;51.826;5.850;2022-10-16T14:04:14;17.64;70.93
67054;SHT31;53960;51.826;5.850;2022-10-16T14:06:41;17.63;70.81
67054;SHT31;53960;51.826;5.850;2022-10-16T14:09:09;17.56;71.19
67054;SHT31;53960;51.826;5.850;2022-10-16T14:11:46;17.62;70.11
67054;SHT31;53960;51.826;5.850;2022-10-16T14:14:13;17.70;69.69
67054;SHT31;53960;51.826;5.850;2022-10-16T14:16:41;17.77;69.94
67054;SHT31;53960;51.826;5.850;2022-10-16T14:19:18;17.77;70.40
67054;SHT31;53960;51.826;5.850;2022-10-16T14:21:44;17.73;70.27
67054;SHT31;53960;51.826;5.850;2022-10-16T14:24:14;17.66;70.28
67054;SHT31;53960;51.826;5.850;2022-10-16T14:26:46;17.57;70.40
67054;SHT31;53960;51.826;5.850;2022-10-16T14:29:17;17.56;71.22
67054;SHT31;53960;51.826;5.850;2022-10-16T14:31:54;17.56;70.93
67054;SHT31;53960;51.826;5.850;2022-10-16T14:34:32;17.53;71.01
67054;SHT31;53960;51.826;5.850;2022-10-16T14:37:09;17.46;71.87
67054;SHT31;53960;51.826;5.850;2022-10-16T14:39:39;17.42;71.77
67054;SHT31;53960;51.826;5.850;2022-10-16T14:42:14;17.30;72.78
67054;SHT31;53960;51.826;5.850;2022-10-16T14:44:41;17.22;73.10
67054;SHT31;53960;51.826;5.850;2022-10-16T14:47:13;17.20;72.88
67054;SHT31;53960;51.826;5.850;2022-10-16T14:49:41;17.13;73.62
67054;SHT31;53960;51.826;5.850;2022-10-16T14:52:11;17.09;73.50
67054;SHT31;53960;51.826;5.850;2022-10-16T14:54:37;17.02;74.34
67054;SHT31;53960;51.826;5.850;2022-10-16T14:57:02;17.03;74.21
67054;SHT31;53960;51.826;5.850;2022-10-16T14:59:40;17.08;74.26
67054;SHT31;53960;51.826;5.850;2022-10-16T15:02:20;17.03;74.65
67054;SHT31;53960;51.826;5.850;2022-10-16T15:04:48;17.03;74.43
67054;SHT31;53960;51.826;5.850;2022-10-16T15:07:13;17.02;74.24
67054;SHT31;53960;51.826;5.850;2022-10-16T15:09:38;16.99;74.02
67054;SHT31;53960;51.826;5.850;2022-10-16T15:12:04;16.95;74.22
67054;SHT31;53960;51.826;5.850;2022-10-16T15:14:29;16.86;74.50
67054;SHT31;53960;51.826;5.850;2022-10-16T15:16:54;16.84;74.61
67054;SHT31;53960;51.826;5.850;2022-10-16T15:19:20;16.78;75.45
67054;SHT31;53960;51.826;5.850;2022-10-16T15:21:45;16.72;76.55
67054;SHT31;53960;51.826;5.850;2022-10-16T15:24:12;16.64;77.37
67054;SHT31;53960;51.826;5.850;2022-10-16T15:26:38;16.51;78.68
67054;SHT31;53960;51.826;5.850;2022-10-16T15:29:04;16.43;80.33
67054;SHT31;53960;51.826;5.850;2022-10-16T15:31:30;16.34;80.98
67054;SHT31;53960;51.826;5.850;2022-10-16T15:33:55;16.31;80.86
67054;SHT31;53960;51.826;5.850;2022-10-16T15:36:30;16.23;80.67
67054;SHT31;53960;51.826;5.850;2022-10-16T15:38:56;16.20;81.31
67054;SHT31;53960;51.826;5.850;2022-10-16T15:41:22;16.13;81.38
67054;SHT31;53960;51.826;5.850;2022-10-16T15:43:48;16.14;81.67
67054;SHT31;53960;51.826;5.850;2022-10-16T15:46:15;16.13;81.10
67054;SHT31;53960;51.826;5.850;2022-10-16T15:48:42;16.09;82.15
67054;SHT31;53960;51.826;5.850;2022-10-16T15:51:09;16.05;82.73
67054;SHT31;53960;51.826;5.850;2022-10-16T15:53:35;16.05;82.41
67054;SHT31;53960;51.826;5.850;2022-10-16T15:56:08;16.00;83.29
67054;SHT31;53960;51.826;5.850;2022-10-16T15:58:34;15.95;83.22
67054;SHT31;53960;51.826;5.850;2022-10-16T16:01:00;15.87;84.17
67054;SHT31;53960;51.826;5.850;2022-10-16T16:03:27;15.85;84.39
67054;SHT31;53960;51.826;5.850;2022-10-16T16:05:53;15.81;84.03
67054;SHT31;53960;51.826;5.850;2022-10-16T16:08:18;15.75;84.57
67054;SHT31;53960;51.826;5.850;2022-10-16T16:10:44;15.70;84.60
67054;SHT31;53960;51.826;5.850;2022-10-16T16:13:09;15.68;83.93
67054;SHT31;53960;51.826;5.850;2022-10-16T16:15:38;15.65;84.04
67054;SHT31;53960;51.826;5.850;2022-10-16T16:18:04;15.65;84.43
67054;SHT31;53960;51.826;5.850;2022-10-16T16:20:30;15.61;84.67
67054;SHT31;53960;51.826;5.850;2022-10-16T16:22:56;15.56;84.77
67054;SHT31;53960;51.826;5.850;2022-10-16T16:25:21;15.54;84.46
67054;SHT31;53960;51.826;5.850;2022-10-16T16:27:47;15.55;84.23
67054;SHT31;53960;51.826;5.850;2022-10-16T16:30:13;15.51;84.44
67054;SHT31;53960;51.826;5.850;2022-10-16T16:32:38;15.48;85.26
67054;SHT31;53960;51.826;5.850;2022-10-16T16:35:04;15.44;85.42
67054;SHT31;53960;51.826;5.850;2022-10-16T16:37:30;15.41;85.10
67054;SHT31;53960;51.826;5.850;2022-10-16T16:39:55;15.35;85.42
67054;SHT31;53960;51.826;5.850;2022-10-16T16:42:24;15.32;86.00
67054;SHT31;53960;51.826;5.850;2022-10-16T16:44:49;15.27;86.08
67054;SHT31;53960;51.826;5.850;2022-10-16T16:47:15;15.25;86.63
67054;SHT31;53960;51.826;5.850;2022-10-16T16:49:40;15.20;86.43
67054;SHT31;53960;51.826;5.850;2022-10-16T16:52:05;15.20;86.56
67054;SHT31;53960;51.826;5.850;2022-10-16T16:54:31;15.16;87.11
67054;SHT31;53960;51.826;5.850;2022-10-16T16:56:56;15.12;87.41